McConnell AFB, Kansas
Current Conditions -  °F | °C
As of 3:54 PM on Friday 19 Dec 2014 (Local Time) from KWLD Reporting Station
Overcast Overcast  
Wind Chill:   Ceiling: 2200
Heat Index:   Visibility: 10mi
Dew Point:   Wind: 0mph
Humidity: 79%   Direction: NA
Pressure: 30.2"   Gusts: NA
Location:  37.38°N, 97.15°W
Report Text: KWLD 192154Z AUTO 00000KT 10SM OVC022 03/00 A3020 RMK AO2 SLP235 T00330000
Loading
Personal Weather Stations






























Interactive Weather Map New forecast layout! Learn more

10-Day Weather Forecast

Advertisements
Track Severe Weather on mobile